Time;durP1;ratioP1;P1;durP2;ratioP2;P2;SDS_P1;SDS_P2;PMS_P1;PMS_P2;Temp;Humidity;BMP_temperature;BMP_pressure;BME280_temperature;BME280_humidity;BME280_pressure;Samples;Min_cycle;Max_cycle;Signal;HPM_P1;HPM_P2
2022/12/19 00:02:20;;;;;;;32.55;12.50;;;;;;;;;;4974572;28;20486;-92
2022/12/19 00:04:46;;;;;;;26.48;10.82;;;;;;;;;;4973487;28;20067;-87
2022/12/19 00:07:12;;;;;;;25.83;10.63;;;;;;;;;;4975777;28;20065;-87
2022/12/19 00:09:38;;;;;;;41.10;15.30;;;;;;;;;;4986748;28;20092;-87
2022/12/19 00:12:04;;;;;;;19.40;8.52;;;;;;;;;;4974565;28;20081;-87
2022/12/19 00:14:33;;;;;;;43.35;16.88;;;;;;;;;;4975873;28;20116;-88
2022/12/19 00:16:59;;;;;;;39.85;15.88;;;;;;;;;;4970071;28;20594;-88
2022/12/19 00:19:25;;;;;;;35.90;13.50;;;;;;;;;;4975656;28;20037;-87
2022/12/19 00:21:51;;;;;;;44.45;14.55;;;;;;;;;;4971978;28;20394;-88
2022/12/19 00:24:23;;;;;;;33.72;12.30;;;;;;;;;;4971050;28;20074;-90
2022/12/19 00:26:49;;;;;;;33.17;13.43;;;;;;;;;;5000732;28;20054;-87
2022/12/19 00:29:16;;;;;;;31.10;11.40;;;;;;;;;;4973196;28;20034;-88
2022/12/19 00:31:42;;;;;;;28.73;10.00;;;;;;;;;;4990927;28;20038;-87
2022/12/19 00:34:10;;;;;;;38.80;14.80;;;;;;;;;;4975265;28;20045;-88
2022/12/19 00:36:36;;;;;;;46.35;17.73;;;;;;;;;;4990734;28;20034;-89
2022/12/19 00:39:03;;;;;;;34.05;13.70;;;;;;;;;;4986703;28;20044;-88
2022/12/19 00:41:34;;;;;;;41.40;14.77;;;;;;;;;;4985001;28;20026;-87
2022/12/19 00:44:02;;;;;;;33.95;12.43;;;;;;;;;;4982947;28;20461;-88
2022/12/19 00:46:30;;;;;;;38.88;16.75;;;;;;;;;;4982781;28;20030;-89
2022/12/19 00:48:56;;;;;;;32.50;10.80;;;;;;;;;;4974533;28;20042;-88
2022/12/19 00:51:35;;;;;;;33.80;12.30;;;;;;;;;;4973040;28;20124;-86
2022/12/19 00:54:02;;;;;;;26.25;9.07;;;;;;;;;;4988327;28;20401;-87
2022/12/19 00:56:29;;;;;;;40.03;14.50;;;;;;;;;;4989162;28;20553;-88
2022/12/19 00:58:56;;;;;;;37.95;14.35;;;;;;;;;;4984880;28;20409;-87
2022/12/19 01:01:24;;;;;;;42.78;17.77;;;;;;;;;;4990521;28;20036;-87
2022/12/19 01:03:50;;;;;;;39.63;15.25;;;;;;;;;;4990487;28;20113;-87
2022/12/19 01:06:16;;;;;;;38.70;15.45;;;;;;;;;;4993821;28;20505;-89
2022/12/19 01:08:42;;;;;;;27.88;11.98;;;;;;;;;;4975908;28;20219;-87
2022/12/19 01:11:09;;;;;;;24.50;7.45;;;;;;;;;;4992637;28;20030;-88
2022/12/19 01:13:35;;;;;;;25.45;10.38;;;;;;;;;;4991343;28;20494;-89
2022/12/19 01:16:06;;;;;;;46.10;18.45;;;;;;;;;;5002081;28;20116;-88
2022/12/19 01:18:32;;;;;;;40.50;16.08;;;;;;;;;;4987009;28;20057;-88
2022/12/19 01:20:59;;;;;;;46.80;16.25;;;;;;;;;;4993309;28;20462;-89
2022/12/19 01:23:25;;;;;;;33.72;13.15;;;;;;;;;;4987348;28;20038;-89
2022/12/19 01:25:55;;;;;;;47.67;16.92;;;;;;;;;;4975312;28;20039;-88
2022/12/19 01:28:21;;;;;;;49.45;18.73;;;;;;;;;;4993527;28;20042;-88
2022/12/19 01:30:47;;;;;;;31.75;11.55;;;;;;;;;;4989086;28;20046;-87
2022/12/19 01:33:14;;;;;;;37.28;13.75;;;;;;;;;;4977069;28;20038;-88
2022/12/19 01:35:40;;;;;;;42.13;15.35;;;;;;;;;;4994286;28;20130;-88
2022/12/19 01:38:06;;;;;;;22.15;9.70;;;;;;;;;;4985069;28;20030;-87
2022/12/19 01:40:33;;;;;;;34.13;13.57;;;;;;;;;;4986492;28;20033;-90
2022/12/19 01:43:00;;;;;;;32.90;13.27;;;;;;;;;;5009415;28;20087;-88
2022/12/19 01:45:28;;;;;;;38.55;15.73;;;;;;;;;;4992637;28;20588;-88
2022/12/19 01:47:54;;;;;;;38.95;15.70;;;;;;;;;;4994883;28;20567;-89
2022/12/19 01:50:43;;;;;;;40.75;15.88;;;;;;;;;;4993907;28;20030;-89
2022/12/19 01:53:10;;;;;;;24.73;9.43;;;;;;;;;;4983362;28;20038;-88
2022/12/19 01:55:39;;;;;;;33.75;12.68;;;;;;;;;;4990425;28;20394;-88
2022/12/19 01:58:08;;;;;;;45.80;13.50;;;;;;;;;;4987603;28;20569;-88
2022/12/19 02:00:34;;;;;;;36.60;13.00;;;;;;;;;;4990415;28;20072;-88
2022/12/19 02:03:05;;;;;;;30.63;9.93;;;;;;;;;;4977479;28;20122;-88
2022/12/19 02:05:32;;;;;;;44.00;17.02;;;;;;;;;;4985924;28;20433;-88
2022/12/19 02:07:58;;;;;;;40.75;14.43;;;;;;;;;;4989007;28;20034;-88
2022/12/19 02:10:24;;;;;;;30.27;12.88;;;;;;;;;;4976551;28;20124;-88
2022/12/19 02:12:51;;;;;;;24.92;10.60;;;;;;;;;;4975714;28;20033;-87
2022/12/19 02:15:17;;;;;;;22.02;9.23;;;;;;;;;;4978452;28;20030;-87
2022/12/19 02:17:46;;;;;;;41.78;16.23;;;;;;;;;;4974700;28;20040;-88
2022/12/19 02:20:24;;;;;;;39.40;16.20;;;;;;;;;;4985139;28;20553;-89
2022/12/19 02:23:11;;;;;;;26.98;10.43;;;;;;;;;;4984056;28;20092;-88
2022/12/19 02:25:48;;;;;;;31.65;12.90;;;;;;;;;;5000075;28;20026;-87
2022/12/19 02:28:33;;;;;;;48.50;17.55;;;;;;;;;;4992093;28;20029;-88
2022/12/19 02:31:14;;;;;;;23.95;9.70;;;;;;;;;;4988547;28;20270;-87
2022/12/19 02:33:49;;;;;;;39.20;15.95;;;;;;;;;;4995782;28;20140;-87
2022/12/19 02:36:18;;;;;;;41.67;14.85;;;;;;;;;;5000553;28;20443;-87
2022/12/19 02:38:44;;;;;;;31.63;11.75;;;;;;;;;;5007308;28;20048;-89
2022/12/19 02:41:15;;;;;;;46.78;18.25;;;;;;;;;;5005233;28;20022;-87
2022/12/19 02:43:43;;;;;;;49.83;17.75;;;;;;;;;;4989152;28;20034;-88
2022/12/19 02:46:10;;;;;;;46.25;18.48;;;;;;;;;;4986078;28;20076;-88
2022/12/19 02:48:36;;;;;;;32.10;12.10;;;;;;;;;;4993189;28;20041;-88
2022/12/19 02:51:02;;;;;;;49.08;19.15;;;;;;;;;;4992505;28;20111;-87
2022/12/19 02:53:28;;;;;;;27.70;11.75;;;;;;;;;;4978929;28;20085;-89
2022/12/19 02:56:12;;;;;;;41.70;13.85;;;;;;;;;;4977302;28;20030;-88
2022/12/19 02:58:42;;;;;;;58.15;19.33;;;;;;;;;;5003245;28;20064;-87
2022/12/19 03:01:21;;;;;;;32.65;11.23;;;;;;;;;;4989357;28;20084;-89
2022/12/19 03:03:57;;;;;;;46.10;15.52;;;;;;;;;;4993465;28;20394;-87
2022/12/19 03:06:47;;;;;;;36.80;13.85;;;;;;;;;;4987894;28;20097;-88
2022/12/19 03:09:36;;;;;;;31.83;13.02;;;;;;;;;;4976180;28;20057;-86
2022/12/19 03:12:06;;;;;;;72.60;13.55;;;;;;;;;;4987714;28;20042;-87
2022/12/19 03:14:33;;;;;;;46.42;17.00;;;;;;;;;;4991146;28;20065;-88
2022/12/19 03:17:06;;;;;;;31.35;11.25;;;;;;;;;;4972120;28;20039;-88
2022/12/19 03:19:33;;;;;;;40.75;15.55;;;;;;;;;;4989049;28;20041;-87
2022/12/19 03:21:59;;;;;;;37.90;15.38;;;;;;;;;;4989918;28;20034;-88
2022/12/19 03:24:26;;;;;;;47.00;18.60;;;;;;;;;;4995128;28;20026;-88
2022/12/19 03:27:09;;;;;;;40.03;16.50;;;;;;;;;;4978028;28;20108;-89
2022/12/19 03:29:45;;;;;;;48.78;17.63;;;;;;;;;;4989589;28;20125;-89
2022/12/19 03:32:13;;;;;;;34.53;13.88;;;;;;;;;;4993507;28;20025;-87
2022/12/19 03:34:45;;;;;;;42.13;17.38;;;;;;;;;;4992349;28;20485;-87
2022/12/19 03:37:14;;;;;;;27.92;11.23;;;;;;;;;;4991314;28;20052;-88
2022/12/19 03:39:41;;;;;;;36.75;16.35;;;;;;;;;;4990829;28;20201;-88
2022/12/19 03:44:53;;;;;;;;;;;;;;;;;;5007668;28;20041;-87
2022/12/19 03:47:37;;;;;;;27.17;12.32;;;;;;;;;;5007624;28;20666;-87
2022/12/19 03:50:04;;;;;;;46.92;18.00;;;;;;;;;;4987055;28;20042;-89
2022/12/19 03:52:33;;;;;;;34.70;15.20;;;;;;;;;;4992812;28;20516;-87
2022/12/19 03:54:59;;;;;;;43.45;16.15;;;;;;;;;;5001321;28;20038;-88
2022/12/19 03:57:29;;;;;;;43.42;17.50;;;;;;;;;;4991607;28;20046;-88
2022/12/19 03:59:57;;;;;;;50.65;19.45;;;;;;;;;;4991316;28;20057;-89
2022/12/19 04:02:24;;;;;;;34.78;13.57;;;;;;;;;;4998697;28;20038;-87
2022/12/19 04:04:58;;;;;;;45.55;17.05;;;;;;;;;;4986423;28;20030;-89
2022/12/19 04:07:25;;;;;;;32.55;13.00;;;;;;;;;;4997041;28;20595;-88
2022/12/19 04:09:53;;;;;;;42.38;15.63;;;;;;;;;;4987530;28;20026;-87
2022/12/19 04:12:22;;;;;;;36.40;12.80;;;;;;;;;;4993058;28;20069;-89
2022/12/19 04:14:48;;;;;;;56.47;20.98;;;;;;;;;;5002306;28;20482;-88
2022/12/19 04:17:35;;;;;;;47.15;16.63;;;;;;;;;;4976342;28;20052;-90
2022/12/19 04:20:13;;;;;;;50.40;17.70;;;;;;;;;;4984987;28;20065;-87
2022/12/19 04:22:48;;;;;;;38.30;15.77;;;;;;;;;;4988092;28;20026;-88
2022/12/19 04:25:16;;;;;;;36.20;14.15;;;;;;;;;;4989113;28;20040;-88
2022/12/19 04:27:48;;;;;;;29.83;11.13;;;;;;;;;;5003797;28;20050;-87
2022/12/19 04:30:15;;;;;;;38.83;13.68;;;;;;;;;;4984589;28;20094;-88
2022/12/19 04:32:45;;;;;;;37.88;15.32;;;;;;;;;;4985731;28;20034;-88
2022/12/19 04:35:11;;;;;;;29.58;11.85;;;;;;;;;;5000042;28;20042;-89
2022/12/19 04:37:37;;;;;;;51.03;19.13;;;;;;;;;;4995927;28;20096;-88
2022/12/19 04:40:04;;;;;;;47.58;19.77;;;;;;;;;;4977102;28;20481;-88
2022/12/19 04:42:31;;;;;;;34.47;13.93;;;;;;;;;;4993997;28;20530;-89
2022/12/19 04:44:57;;;;;;;48.40;20.83;;;;;;;;;;4996433;28;20465;-88
2022/12/19 04:47:23;;;;;;;51.03;15.40;;;;;;;;;;4977969;28;20089;-88
2022/12/19 04:49:49;;;;;;;49.53;19.20;;;;;;;;;;4975722;28;20038;-89
2022/12/19 04:52:15;;;;;;;40.25;16.13;;;;;;;;;;4981050;28;20132;-88
2022/12/19 04:54:41;;;;;;;32.15;13.73;;;;;;;;;;4991440;28;20053;-90
2022/12/19 04:57:08;;;;;;;55.38;18.70;;;;;;;;;;4981202;28;20501;-88
2022/12/19 04:59:34;;;;;;;46.58;15.57;;;;;;;;;;4979584;28;20068;-92
2022/12/19 05:02:00;;;;;;;62.28;18.17;;;;;;;;;;5012637;28;20022;-89
2022/12/19 05:04:26;;;;;;;39.92;16.52;;;;;;;;;;4997974;28;20030;-89
2022/12/19 05:06:53;;;;;;;40.33;15.48;;;;;;;;;;4993008;28;20240;-90
2022/12/19 05:09:19;;;;;;;44.60;17.77;;;;;;;;;;4996803;28;20092;-89
2022/12/19 05:11:45;;;;;;;31.17;11.40;;;;;;;;;;4979643;28;20525;-88
2022/12/19 05:14:11;;;;;;;50.70;18.85;;;;;;;;;;4980238;28;20498;-88
2022/12/19 05:16:37;;;;;;;48.60;17.73;;;;;;;;;;4980999;28;20033;-88
2022/12/19 05:19:04;;;;;;;40.13;16.50;;;;;;;;;;4979223;28;20040;-89
2022/12/19 05:21:30;;;;;;;29.75;11.43;;;;;;;;;;4976845;28;20517;-89
2022/12/19 05:23:56;;;;;;;61.25;21.25;;;;;;;;;;4981577;28;20505;-89
2022/12/19 05:26:22;;;;;;;42.17;16.40;;;;;;;;;;4978533;28;20029;-88
2022/12/19 05:28:49;;;;;;;63.17;22.45;;;;;;;;;;4983025;28;20037;-88
2022/12/19 05:31:16;;;;;;;61.30;21.88;;;;;;;;;;4981365;28;20087;-88
2022/12/19 05:33:42;;;;;;;31.67;13.00;;;;;;;;;;4996053;28;20026;-88
2022/12/19 05:36:09;;;;;;;50.72;18.92;;;;;;;;;;4995315;28;20034;-89
2022/12/19 05:38:36;;;;;;;88.85;18.70;;;;;;;;;;4984650;28;20045;-88
2022/12/19 05:41:14;;;;;;;37.03;15.00;;;;;;;;;;5000021;28;20032;-89
2022/12/19 05:43:40;;;;;;;57.10;21.38;;;;;;;;;;4998304;28;20030;-89
2022/12/19 05:46:07;;;;;;;45.53;17.08;;;;;;;;;;4977758;28;20494;-88
2022/12/19 05:48:33;;;;;;;58.35;22.20;;;;;;;;;;4997018;28;20036;-89
2022/12/19 05:50:59;;;;;;;47.83;18.60;;;;;;;;;;5005098;28;20489;-90
2022/12/19 05:53:32;;;;;;;24.10;10.27;;;;;;;;;;4997319;28;20057;-88
2022/12/19 05:56:06;;;;;;;55.03;19.13;;;;;;;;;;4998438;28;20084;-88
2022/12/19 05:58:33;;;;;;;26.88;11.45;;;;;;;;;;5000294;28;20069;-90
2022/12/19 06:01:03;;;;;;;46.10;18.75;;;;;;;;;;4984525;28;20128;-90
2022/12/19 06:03:29;;;;;;;44.35;18.40;;;;;;;;;;4993724;28;20443;-88
2022/12/19 06:05:56;;;;;;;29.35;12.93;;;;;;;;;;4996512;28;20085;-89
2022/12/19 06:08:22;;;;;;;25.13;11.55;;;;;;;;;;4999495;28;20041;-89
2022/12/19 06:10:48;;;;;;;46.47;18.60;;;;;;;;;;5001099;28;20464;-89
2022/12/19 06:13:15;;;;;;;27.92;12.43;;;;;;;;;;4978188;28;20126;-89
2022/12/19 06:15:41;;;;;;;32.50;13.80;;;;;;;;;;4977177;28;20482;-89
2022/12/19 06:18:07;;;;;;;40.13;14.73;;;;;;;;;;4978255;28;20153;-89
2022/12/19 06:20:33;;;;;;;35.35;14.60;;;;;;;;;;4991172;28;20133;-89
2022/12/19 06:23:00;;;;;;;34.00;14.20;;;;;;;;;;4991440;28;20034;-89
2022/12/19 06:25:26;;;;;;;46.20;16.05;;;;;;;;;;4979320;28;20044;-88
2022/12/19 06:27:52;;;;;;;24.00;9.55;;;;;;;;;;4977676;28;20073;-89
2022/12/19 06:30:18;;;;;;;41.95;13.40;;;;;;;;;;4994654;28;20482;-89
2022/12/19 06:32:44;;;;;;;26.80;11.50;;;;;;;;;;4987119;28;20497;-89
2022/12/19 06:35:10;;;;;;;15.15;7.53;;;;;;;;;;4975011;28;20619;-88
2022/12/19 06:37:36;;;;;;;29.58;13.32;;;;;;;;;;4985587;28;20026;-90
2022/12/19 06:40:02;;;;;;;28.80;10.90;;;;;;;;;;4973942;28;20034;-89
2022/12/19 06:42:28;;;;;;;20.27;8.98;;;;;;;;;;5003433;28;20168;-88
2022/12/19 06:44:55;;;;;;;37.75;13.68;;;;;;;;;;4981561;28;20046;-90
2022/12/19 06:47:21;;;;;;;22.45;7.75;;;;;;;;;;4991214;28;20059;-89
2022/12/19 06:49:49;;;;;;;22.60;10.05;;;;;;;;;;4978167;28;20120;-89
2022/12/19 06:52:16;;;;;;;27.42;11.23;;;;;;;;;;4983039;28;20172;-88
2022/12/19 06:54:46;;;;;;;21.52;9.60;;;;;;;;;;4994133;28;20471;-89
2022/12/19 06:57:12;;;;;;;15.07;8.05;;;;;;;;;;4977986;28;20321;-89
2022/12/19 06:59:38;;;;;;;15.00;7.82;;;;;;;;;;4994040;28;20030;-89
2022/12/19 07:02:13;;;;;;;20.00;8.38;;;;;;;;;;4974768;28;20403;-89
2022/12/19 07:04:47;;;;;;;35.67;6.95;;;;;;;;;;4986639;28;20022;-89
2022/12/19 07:07:14;;;;;;;26.95;12.13;;;;;;;;;;4990145;28;20037;-89
2022/12/19 07:09:40;;;;;;;24.08;9.13;;;;;;;;;;4979376;28;20314;-89
2022/12/19 07:12:07;;;;;;;23.33;10.82;;;;;;;;;;4993431;28;20549;-90
2022/12/19 07:14:33;;;;;;;23.90;10.25;;;;;;;;;;5004481;28;20046;-89
2022/12/19 07:17:00;;;;;;;20.38;8.52;;;;;;;;;;4975702;28;20425;-89
2022/12/19 07:19:27;;;;;;;21.55;6.63;;;;;;;;;;4988689;28;20041;-88
2022/12/19 07:21:54;;;;;;;13.82;5.90;;;;;;;;;;4988784;28;20014;-90
2022/12/19 07:24:20;;;;;;;16.55;6.13;;;;;;;;;;4975443;28;20429;-89
2022/12/19 07:26:46;;;;;;;19.15;6.63;;;;;;;;;;4990123;28;20036;-90
2022/12/19 07:29:15;;;;;;;19.83;8.68;;;;;;;;;;4993977;28;20037;-89
2022/12/19 07:31:41;;;;;;;17.88;9.30;;;;;;;;;;4994253;28;20033;-90
2022/12/19 07:34:11;;;;;;;13.55;6.22;;;;;;;;;;4988206;28;20441;-89
2022/12/19 07:36:37;;;;;;;16.95;7.88;;;;;;;;;;4991057;28;20437;-89
2022/12/19 07:39:03;;;;;;;13.20;6.00;;;;;;;;;;4991620;28;20038;-89
2022/12/19 07:41:29;;;;;;;22.75;9.52;;;;;;;;;;4994630;28;20154;-89
2022/12/19 07:43:55;;;;;;;20.90;8.38;;;;;;;;;;4992163;28;20022;-88
2022/12/19 07:46:21;;;;;;;14.90;7.00;;;;;;;;;;4977649;28;20494;-88
2022/12/19 07:48:47;;;;;;;12.25;6.45;;;;;;;;;;4993214;28;20484;-89
2022/12/19 07:51:13;;;;;;;11.52;5.30;;;;;;;;;;4989252;28;20552;-89
2022/12/19 07:53:45;;;;;;;17.05;7.00;;;;;;;;;;4998390;28;20045;-89
2022/12/19 07:56:11;;;;;;;18.60;7.00;;;;;;;;;;4968937;28;20048;-88
2022/12/19 07:58:37;;;;;;;11.75;6.03;;;;;;;;;;4976506;28;20041;-89
2022/12/19 08:01:03;;;;;;;12.57;6.10;;;;;;;;;;4974329;28;20030;-91
2022/12/19 08:03:29;;;;;;;15.98;7.07;;;;;;;;;;4981965;28;20036;-88
2022/12/19 08:06:05;;;;;;;14.43;6.72;;;;;;;;;;4978949;28;20037;-90
2022/12/19 08:08:44;;;;;;;24.35;9.23;;;;;;;;;;4986513;28;20486;-89
2022/12/19 08:11:26;;;;;;;10.98;5.55;;;;;;;;;;4977888;28;20045;-88
2022/12/19 08:13:56;;;;;;;9.80;5.03;;;;;;;;;;4980367;28;20359;-88
2022/12/19 08:16:24;;;;;;;18.77;6.90;;;;;;;;;;4982185;28;20060;-88
2022/12/19 08:18:51;;;;;;;20.27;7.05;;;;;;;;;;4990689;28;20037;-89
2022/12/19 08:21:17;;;;;;;16.83;7.75;;;;;;;;;;4991762;28;20034;-88
2022/12/19 08:23:44;;;;;;;6.03;3.53;;;;;;;;;;4971963;28;20124;-89
2022/12/19 08:26:12;;;;;;;7.95;3.30;;;;;;;;;;4989116;28;20042;-89
2022/12/19 08:28:38;;;;;;;10.77;5.22;;;;;;;;;;4993614;28;20124;-92
2022/12/19 08:31:15;;;;;;;11.77;5.90;;;;;;;;;;4985720;28;20027;-91
2022/12/19 08:33:41;;;;;;;7.00;3.95;;;;;;;;;;4994427;28;20059;-90
2022/12/19 08:36:09;;;;;;;6.45;3.80;;;;;;;;;;4986396;28;20026;-89
2022/12/19 08:38:35;;;;;;;16.80;8.27;;;;;;;;;;4993436;28;20512;-90
2022/12/19 08:41:02;;;;;;;17.35;5.63;;;;;;;;;;4974201;28;20137;-88
2022/12/19 08:43:29;;;;;;;11.55;5.00;;;;;;;;;;4989249;28;20054;-88
2022/12/19 08:45:55;;;;;;;12.68;6.32;;;;;;;;;;4991761;28;20078;-90
2022/12/19 08:48:22;;;;;;;11.07;5.35;;;;;;;;;;4993227;28;20026;-89
2022/12/19 08:51:24;;;;;;;11.77;6.28;;;;;;;;;;4977544;28;20029;-89
2022/12/19 08:53:50;;;;;;;11.38;4.85;;;;;;;;;;4947475;28;20038;-89
2022/12/19 08:56:18;;;;;;;12.20;5.47;;;;;;;;;;5001329;28;20033;-89
2022/12/19 08:58:45;;;;;;;8.02;4.85;;;;;;;;;;4983484;28;20026;-89
2022/12/19 09:01:17;;;;;;;12.38;5.28;;;;;;;;;;4988456;28;20030;-89
2022/12/19 09:03:43;;;;;;;13.35;6.25;;;;;;;;;;4984883;28;20273;-89
2022/12/19 09:06:10;;;;;;;7.20;3.88;;;;;;;;;;4983955;28;20026;-89
2022/12/19 09:08:36;;;;;;;9.93;4.80;;;;;;;;;;4987633;28;20041;-90
2022/12/19 09:11:05;;;;;;;10.57;5.60;;;;;;;;;;4988928;28;20109;-88
2022/12/19 09:13:32;;;;;;;6.90;4.38;;;;;;;;;;4988287;28;20041;-89
2022/12/19 09:16:03;;;;;;;8.50;3.75;;;;;;;;;;4988699;28;20026;-88
2022/12/19 09:18:30;;;;;;;9.02;5.30;;;;;;;;;;4988445;28;20045;-89
2022/12/19 09:20:57;;;;;;;15.18;6.32;;;;;;;;;;5004120;28;20022;-88
2022/12/19 09:23:25;;;;;;;8.55;4.15;;;;;;;;;;4990297;28;20536;-89
2022/12/19 09:25:52;;;;;;;10.48;5.40;;;;;;;;;;4994286;28;20022;-89
2022/12/19 09:28:18;;;;;;;10.02;5.28;;;;;;;;;;4999992;28;20084;-88
2022/12/19 09:30:44;;;;;;;13.50;6.53;;;;;;;;;;4977930;28;20030;-88
2022/12/19 09:33:11;;;;;;;9.65;5.78;;;;;;;;;;4976824;28;20541;-89
2022/12/19 09:35:37;;;;;;;8.15;4.20;;;;;;;;;;4976311;28;20033;-91
2022/12/19 09:38:03;;;;;;;7.80;4.35;;;;;;;;;;4994323;28;20532;-88
2022/12/19 09:40:33;;;;;;;6.80;4.00;;;;;;;;;;4996703;28;20037;-88
2022/12/19 09:43:21;;;;;;;9.90;5.13;;;;;;;;;;4997931;28;20521;-89
2022/12/19 09:46:02;;;;;;;10.20;6.35;;;;;;;;;;4992187;28;20520;-90
2022/12/19 09:48:28;;;;;;;8.63;5.03;;;;;;;;;;4991408;28;20486;-88
2022/12/19 09:51:08;;;;;;;15.98;7.43;;;;;;;;;;4977325;28;20092;-89
2022/12/19 09:53:47;;;;;;;17.42;9.65;;;;;;;;;;4996289;28;20093;-91
2022/12/19 09:56:14;;;;;;;14.50;7.18;;;;;;;;;;4993260;28;20128;-88
2022/12/19 09:58:44;;;;;;;15.63;7.75;;;;;;;;;;4995976;28;20048;-88
2022/12/19 10:01:21;;;;;;;9.90;4.82;;;;;;;;;;4996826;28;20174;-88
2022/12/19 10:03:54;;;;;;;16.88;8.65;;;;;;;;;;4988425;28;20074;-88
2022/12/19 10:06:21;;;;;;;21.13;8.05;;;;;;;;;;4993510;28;20126;-89
2022/12/19 10:08:48;;;;;;;20.38;9.38;;;;;;;;;;4992123;28;20034;-89
2022/12/19 10:11:24;;;;;;;9.35;5.45;;;;;;;;;;4993386;28;20512;-88
2022/12/19 10:13:53;;;;;;;14.75;5.88;;;;;;;;;;4988386;28;20613;-90
2022/12/19 10:16:29;;;;;;;12.30;5.90;;;;;;;;;;5001151;28;20026;-89
2022/12/19 10:19:01;;;;;;;12.27;5.53;;;;;;;;;;4985905;28;20034;-89
2022/12/19 10:21:30;;;;;;;12.00;6.95;;;;;;;;;;5001962;28;20030;-86
2022/12/19 10:23:59;;;;;;;10.85;6.28;;;;;;;;;;4993446;28;20359;-88
2022/12/19 10:26:32;;;;;;;17.65;6.25;;;;;;;;;;4989676;28;20025;-88
2022/12/19 10:29:34;;;;;;;17.88;5.90;;;;;;;;;;5006219;28;20034;-87
2022/12/19 10:32:17;;;;;;;14.43;7.57;;;;;;;;;;4990175;28;20400;-91
2022/12/19 10:34:44;;;;;;;12.13;5.80;;;;;;;;;;4991965;28;20041;-89
2022/12/19 10:37:17;;;;;;;18.92;8.95;;;;;;;;;;4988348;28;20172;-88
2022/12/19 10:39:46;;;;;;;14.43;7.07;;;;;;;;;;4994275;28;20597;-90
2022/12/19 10:42:19;;;;;;;13.13;5.72;;;;;;;;;;5013401;28;20553;-87
2022/12/19 10:44:46;;;;;;;18.55;8.82;;;;;;;;;;4994236;28;20034;-91
2022/12/19 10:47:16;;;;;;;9.77;5.80;;;;;;;;;;4993284;28;20030;-88
2022/12/19 10:49:43;;;;;;;18.63;8.75;;;;;;;;;;5009705;28;20469;-88
2022/12/19 10:52:10;;;;;;;6.97;3.63;;;;;;;;;;5002590;28;20057;-89
2022/12/19 10:54:36;;;;;;;17.33;8.18;;;;;;;;;;4986951;28;20050;-90
2022/12/19 10:57:19;;;;;;;17.08;9.15;;;;;;;;;;4993039;28;20030;-87
2022/12/19 11:00:02;;;;;;;9.77;5.05;;;;;;;;;;4991290;28;20493;-88
2022/12/19 11:02:36;;;;;;;14.63;8.50;;;;;;;;;;5013228;28;20509;-88
2022/12/19 11:05:03;;;;;;;17.63;9.07;;;;;;;;;;4998832;28;20513;-88
2022/12/19 11:07:29;;;;;;;14.57;6.88;;;;;;;;;;4985684;28;20034;-87
2022/12/19 11:09:55;;;;;;;11.10;3.63;;;;;;;;;;4990469;28;20503;-87
2022/12/19 11:12:25;;;;;;;11.65;5.88;;;;;;;;;;4983612;28;20113;-88
2022/12/19 11:14:52;;;;;;;7.82;4.05;;;;;;;;;;4986989;28;20061;-89
2022/12/19 11:17:33;;;;;;;15.00;7.60;;;;;;;;;;4986953;28;20432;-89
2022/12/19 11:20:09;;;;;;;10.30;5.55;;;;;;;;;;4981236;28;20474;-90
2022/12/19 11:22:43;;;;;;;17.80;4.60;;;;;;;;;;4984993;28;20026;-88
2022/12/19 11:25:19;;;;;;;15.73;7.60;;;;;;;;;;4985836;28;20026;-90
2022/12/19 11:27:47;;;;;;;7.18;3.80;;;;;;;;;;4991504;28;20113;-88
2022/12/19 11:30:24;;;;;;;12.05;6.75;;;;;;;;;;5002688;28;20099;-88
2022/12/19 11:33:07;;;;;;;7.97;5.13;;;;;;;;;;4992054;28;20496;-88
2022/12/19 11:35:46;;;;;;;13.02;5.22;;;;;;;;;;4996558;28;20501;-87
2022/12/19 11:38:16;;;;;;;15.20;6.93;;;;;;;;;;4989433;28;20026;-88
2022/12/19 11:40:49;;;;;;;15.68;7.25;;;;;;;;;;4975233;28;20034;-89
2022/12/19 11:43:27;;;;;;;11.13;6.25;;;;;;;;;;4988501;28;20488;-92
2022/12/19 11:46:14;;;;;;;12.07;6.07;;;;;;;;;;4987809;28;20041;-89
2022/12/19 11:48:44;;;;;;;13.30;6.95;;;;;;;;;;4996415;28;20026;-89
2022/12/19 11:51:36;;;;;;;10.52;4.43;;;;;;;;;;4992376;28;20478;-89
2022/12/19 11:54:12;;;;;;;13.95;7.75;;;;;;;;;;4985904;28;20585;-88
2022/12/19 11:56:39;;;;;;;14.57;7.63;;;;;;;;;;4989235;28;20488;-89
2022/12/19 11:59:25;;;;;;;10.75;6.10;;;;;;;;;;4991271;28;20042;-88
2022/12/19 12:02:12;;;;;;;19.35;8.35;;;;;;;;;;4949475;28;20054;-89
2022/12/19 12:04:50;;;;;;;12.63;5.68;;;;;;;;;;4985897;28;20037;-90
2022/12/19 12:07:16;;;;;;;15.30;6.63;;;;;;;;;;4978795;28;20050;-89
2022/12/19 12:09:46;;;;;;;8.13;4.70;;;;;;;;;;4989925;28;20459;-89
2022/12/19 12:12:29;;;;;;;6.45;4.00;;;;;;;;;;4992224;28;20068;-88
2022/12/19 12:15:08;;;;;;;10.38;5.25;;;;;;;;;;5001974;28;20044;-89
2022/12/19 12:17:41;;;;;;;17.27;5.78;;;;;;;;;;4988769;28;20034;-91
2022/12/19 12:20:27;;;;;;;10.25;5.65;;;;;;;;;;4983094;28;20034;-89
2022/12/19 12:22:54;;;;;;;13.90;4.93;;;;;;;;;;4988994;28;20022;-88
2022/12/19 12:25:37;;;;;;;9.13;4.88;;;;;;;;;;4988568;28;20121;-89
2022/12/19 12:28:15;;;;;;;13.73;4.20;;;;;;;;;;4986260;28;20034;-89
2022/12/19 12:31:10;;;;;;;9.40;4.35;;;;;;;;;;4995176;28;20029;-88
2022/12/19 12:33:55;;;;;;;7.05;3.92;;;;;;;;;;4933502;28;20048;-89
2022/12/19 12:36:40;;;;;;;8.05;4.70;;;;;;;;;;4986413;28;20088;-89
2022/12/19 12:39:18;;;;;;;11.65;6.72;;;;;;;;;;4990946;28;20037;-89
2022/12/19 12:42:02;;;;;;;11.30;4.43;;;;;;;;;;4993078;28;20505;-89
2022/12/19 12:44:37;;;;;;;11.10;4.55;;;;;;;;;;4979574;28;20051;-91
2022/12/19 12:47:23;;;;;;;13.82;6.88;;;;;;;;;;4987205;28;20608;-90
2022/12/19 12:49:55;;;;;;;13.57;7.20;;;;;;;;;;4984263;28;20038;-89
2022/12/19 12:52:23;;;;;;;11.88;5.40;;;;;;;;;;4982262;28;20034;-89
2022/12/19 12:54:56;;;;;;;12.68;6.18;;;;;;;;;;4988466;28;20544;-90
2022/12/19 12:57:29;;;;;;;14.18;5.38;;;;;;;;;;4994709;28;20042;-89
2022/12/19 13:00:21;;;;;;;9.27;4.78;;;;;;;;;;4994586;28;20041;-89
2022/12/19 13:02:53;;;;;;;13.15;5.80;;;;;;;;;;4993481;28;20117;-89
2022/12/19 13:05:22;;;;;;;14.40;6.30;;;;;;;;;;4995590;28;20030;-90
2022/12/19 13:07:52;;;;;;;12.00;6.50;;;;;;;;;;4994486;28;20062;-90
2022/12/19 13:10:18;;;;;;;8.75;5.32;;;;;;;;;;4989374;28;20092;-90
2022/12/19 13:12:59;;;;;;;12.18;7.03;;;;;;;;;;4991106;28;20030;-90
2022/12/19 13:15:30;;;;;;;11.40;4.82;;;;;;;;;;4992647;28;20056;-89
2022/12/19 13:17:56;;;;;;;11.88;4.47;;;;;;;;;;4993638;28;20033;-89
2022/12/19 13:20:28;;;;;;;13.10;5.93;;;;;;;;;;4989170;28;20038;-89
2022/12/19 13:22:57;;;;;;;9.88;5.68;;;;;;;;;;4997531;28;20608;-90
2022/12/19 13:25:26;;;;;;;10.02;5.28;;;;;;;;;;4994215;28;20565;-89
2022/12/19 13:28:13;;;;;;;17.13;7.55;;;;;;;;;;4992873;28;20041;-90
2022/12/19 13:30:59;;;;;;;17.63;7.35;;;;;;;;;;4996798;28;20045;-89
2022/12/19 13:33:44;;;;;;;10.23;5.18;;;;;;;;;;5009571;28;20034;-88
2022/12/19 13:36:29;;;;;;;7.32;4.40;;;;;;;;;;4995324;28;20038;-89
2022/12/19 13:38:59;;;;;;;7.03;3.67;;;;;;;;;;5008074;28;20112;-93
2022/12/19 13:44:13;;;;;;;8.82;4.63;;;;;;;;;;5001920;28;20077;-89
2022/12/19 13:46:44;;;;;;;6.80;3.47;;;;;;;;;;4989222;28;20038;-91
2022/12/19 13:49:16;;;;;;;10.20;5.93;;;;;;;;;;4983676;28;20037;-93
2022/12/19 13:51:45;;;;;;;15.73;5.88;;;;;;;;;;4993636;28;20424;-91
2022/12/19 13:54:22;;;;;;;9.40;4.35;;;;;;;;;;4995695;28;20047;-89
2022/12/19 13:56:49;;;;;;;7.30;4.10;;;;;;;;;;5008812;28;20120;-94
2022/12/19 13:59:15;;;;;;;7.18;3.90;;;;;;;;;;4994296;28;20041;-90
2022/12/19 14:01:46;;;;;;;13.20;7.10;;;;;;;;;;5004909;28;20381;-90
2022/12/19 14:04:27;;;;;;;11.10;5.25;;;;;;;;;;5005380;28;20037;-89
2022/12/19 14:06:57;;;;;;;9.75;5.03;;;;;;;;;;4989365;28;20581;-90
2022/12/19 14:09:26;;;;;;;11.55;6.20;;;;;;;;;;4998124;28;20547;-90
2022/12/19 14:11:54;;;;;;;12.10;6.05;;;;;;;;;;4999264;28;20146;-90
2022/12/19 14:17:06;;;;;;;14.38;6.72;;;;;;;;;;4993464;28;20056;-92
2022/12/19 14:19:48;;;;;;;13.00;5.50;;;;;;;;;;5007081;28;20104;-90
2022/12/19 14:51:40;;;;;;;17.30;7.47;;;;;;;;;;4990048;28;20030;-91
2022/12/19 14:54:10;;;;;;;16.85;3.30;;;;;;;;;;4992814;28;20511;-91
2022/12/19 14:56:55;;;;;;;8.20;4.70;;;;;;;;;;4989187;28;20034;-91
2022/12/19 14:59:42;;;;;;;13.02;5.05;;;;;;;;;;5004776;28;20120;-91
2022/12/19 15:02:11;;;;;;;14.73;5.78;;;;;;;;;;4987327;28;20536;-91
2022/12/19 15:04:47;;;;;;;10.25;4.35;;;;;;;;;;4991398;28;20504;-92
2022/12/19 15:07:25;;;;;;;4.88;3.30;;;;;;;;;;4980359;28;20531;-91
2022/12/19 15:10:01;;;;;;;17.42;7.18;;;;;;;;;;4988106;28;20037;-92
2022/12/19 15:15:17;;;;;;;13.73;5.68;;;;;;;;;;5005342;28;20056;-91
2022/12/19 15:17:47;;;;;;;7.95;3.92;;;;;;;;;;4989969;28;20076;-91
2022/12/19 15:20:13;;;;;;;10.73;5.47;;;;;;;;;;4986909;28;20060;-91
2022/12/19 15:22:42;;;;;;;21.88;5.97;;;;;;;;;;4968121;28;20038;-91
2022/12/19 15:25:12;;;;;;;9.80;4.10;;;;;;;;;;4987206;28;20022;-92
2022/12/19 15:27:39;;;;;;;8.45;4.50;;;;;;;;;;4986836;28;20085;-91